createdAt,value
2019-06-26T00:00:53.908Z,5.90
2019-06-26T00:03:23.782Z,5.95
2019-06-26T00:05:53.872Z,6.20
2019-06-26T00:08:23.782Z,6.37
2019-06-26T00:10:53.848Z,6.83
2019-06-26T00:13:26.732Z,6.58
2019-06-26T00:15:55.329Z,6.00
2019-06-26T00:18:25.058Z,6.50
2019-06-26T00:20:54.658Z,5.87
2019-06-26T00:23:24.356Z,6.67
2019-06-26T00:25:54.289Z,6.20
2019-06-26T00:28:24.400Z,6.78
2019-06-26T00:30:53.946Z,6.30
2019-06-26T00:33:23.787Z,6.58
2019-06-26T00:35:53.882Z,6.53
2019-06-26T00:38:23.660Z,6.67
2019-06-26T00:40:53.439Z,5.97
2019-06-26T00:43:23.230Z,5.33
2019-06-26T00:45:53.496Z,5.95
2019-06-26T00:48:23.270Z,5.00
2019-06-26T00:50:53.221Z,5.50
2019-06-26T00:53:22.879Z,5.75
2019-06-26T00:55:55.220Z,5.60
2019-06-26T00:58:24.896Z,5.95
2019-06-26T01:00:55.148Z,5.95
2019-06-26T01:03:25.277Z,5.20
2019-06-26T01:05:55.040Z,5.37
2019-06-26T01:08:24.934Z,5.33
2019-06-26T01:10:54.822Z,5.62
2019-06-26T01:13:24.512Z,5.70
2019-06-26T01:15:54.205Z,6.45
2019-06-26T01:18:23.969Z,6.05
2019-06-26T01:20:54.019Z,5.87
2019-06-26T01:23:23.752Z,6.40
2019-06-26T01:25:53.679Z,5.65
2019-06-26T01:28:23.667Z,6.17
2019-06-26T01:30:53.604Z,6.53
2019-06-26T01:33:23.533Z,6.35
2019-06-26T01:35:53.616Z,6.65
2019-06-26T01:38:23.446Z,6.72
2019-06-26T01:40:53.398Z,9.08
2019-06-26T01:43:23.143Z,8.25
2019-06-26T01:45:52.979Z,9.38
2019-06-26T01:48:22.682Z,10.78
2019-06-26T01:50:52.446Z,12.15
2019-06-26T01:53:22.139Z,12.30
2019-06-26T01:55:51.888Z,11.50
2019-06-26T01:58:21.543Z,13.18
2019-06-26T02:00:51.296Z,13.18
2019-06-26T02:03:20.961Z,12.55
2019-06-26T02:05:50.711Z,12.47
2019-06-26T02:08:20.381Z,12.82
2019-06-26T02:10:50.161Z,12.37
2019-06-26T02:13:19.890Z,12.88
2019-06-26T02:15:49.664Z,11.85
2019-06-26T02:18:36.205Z,11.05
2019-06-26T02:21:05.946Z,10.45
2019-06-26T02:23:35.731Z,11.60
2019-06-26T02:26:05.953Z,12.63
2019-06-26T02:28:35.695Z,13.22
2019-06-26T02:31:05.562Z,21.37
2019-06-26T02:33:35.172Z,20.05
2019-06-26T02:36:05.196Z,20.23
2019-06-26T02:38:34.833Z,20.60
2019-06-26T02:41:04.821Z,19.32
2019-06-26T02:43:35.267Z,18.95
2019-06-26T02:46:05.365Z,18.10
2019-06-26T02:48:35.096Z,16.12
2019-06-26T02:51:05.225Z,13.13
2019-06-26T02:53:35.111Z,10.93
2019-06-26T02:56:04.952Z,11.30
2019-06-26T02:58:34.624Z,10.50
2019-06-26T03:01:04.831Z,11.20
2019-06-26T03:03:34.780Z,10.65
2019-06-26T03:06:04.735Z,11.40
2019-06-26T03:08:34.743Z,11.70
2019-06-26T03:11:05.682Z,12.80
2019-06-26T03:13:36.391Z,15.40
2019-06-26T03:16:06.942Z,16.30
2019-06-26T03:18:37.288Z,17.98
2019-06-26T03:21:07.654Z,15.63
2019-06-26T03:23:38.123Z,15.60
2019-06-26T03:26:09.032Z,14.53
2019-06-26T03:28:39.818Z,15.23
2019-06-26T03:31:10.704Z,15.40
2019-06-26T03:33:41.758Z,14.55
2019-06-26T03:36:12.336Z,15.00
2019-06-26T03:38:42.948Z,15.08
2019-06-26T03:41:13.713Z,14.25
2019-06-26T03:43:44.296Z,13.68
2019-06-26T03:46:15.098Z,11.90
2019-06-26T03:48:45.868Z,11.35
2019-06-26T03:51:16.113Z,10.93
2019-06-26T03:53:47.170Z,12.73
2019-06-26T03:56:17.555Z,12.50
2019-06-26T03:58:48.084Z,13.28
2019-06-26T04:01:18.584Z,15.63
2019-06-26T04:03:49.222Z,17.45
2019-06-26T04:06:19.756Z,17.32
2019-06-26T04:08:50.468Z,17.17
2019-06-26T04:11:20.802Z,21.95
2019-06-26T04:13:51.319Z,18.27
2019-06-26T04:16:22.297Z,15.40
2019-06-26T04:18:52.948Z,16.65
2019-06-26T04:21:23.735Z,16.73
2019-06-26T04:23:53.988Z,13.43
2019-06-26T04:26:24.727Z,14.30
2019-06-26T04:28:55.220Z,14.25
2019-06-26T04:31:25.469Z,15.15
2019-06-26T04:33:55.991Z,14.38
2019-06-26T04:36:26.652Z,13.20
2019-06-26T04:38:57.278Z,14.38
2019-06-26T04:41:27.997Z,13.60
2019-06-26T04:43:58.746Z,14.58
2019-06-26T04:46:29.797Z,12.45
2019-06-26T04:49:00.139Z,11.80
2019-06-26T04:51:30.801Z,10.68
2019-06-26T04:54:01.293Z,10.35
2019-06-26T04:56:31.784Z,10.78
2019-06-26T04:59:02.271Z,11.25
2019-06-26T05:01:32.598Z,12.43
2019-06-26T05:04:02.978Z,12.53
2019-06-26T05:06:33.546Z,13.00
2019-06-26T05:09:04.915Z,13.93
2019-06-26T05:11:35.667Z,14.10
2019-06-26T05:14:06.512Z,13.60
2019-06-26T05:16:37.308Z,13.83
2019-06-26T05:19:07.717Z,13.93
2019-06-26T05:21:38.452Z,12.95
2019-06-26T05:24:09.125Z,12.75
2019-06-26T05:26:40.255Z,13.88
2019-06-26T05:29:11.068Z,12.73
2019-06-26T05:31:41.666Z,12.68
2019-06-26T05:34:12.206Z,14.15
2019-06-26T05:36:43.333Z,13.60
2019-06-26T05:39:13.720Z,14.65
2019-06-26T05:41:44.687Z,14.70
2019-06-26T05:44:15.387Z,15.65
2019-06-26T05:46:47.251Z,16.07
2019-06-26T05:49:18.053Z,17.40
2019-06-26T05:51:48.752Z,16.77
2019-06-26T05:54:19.611Z,18.30
2019-06-26T05:56:50.389Z,19.37
2019-06-26T05:59:20.887Z,21.17
2019-06-26T06:01:50.998Z,21.25
2019-06-26T06:04:22.061Z,20.85
2019-06-26T06:06:52.491Z,18.70
2019-06-26T06:09:22.945Z,15.60
2019-06-26T06:11:53.119Z,13.43
2019-06-26T06:14:23.729Z,12.03
2019-06-26T06:16:54.225Z,11.33
2019-06-26T06:19:24.611Z,11.95
2019-06-26T06:21:55.007Z,12.10
2019-06-26T06:24:25.050Z,12.88
2019-06-26T06:26:55.062Z,15.65
2019-06-26T06:29:25.310Z,11.33
2019-06-26T06:31:55.552Z,12.35
2019-06-26T06:34:25.820Z,12.70
2019-06-26T06:36:56.324Z,14.33
2019-06-26T06:39:26.739Z,12.10
2019-06-26T06:41:57.548Z,15.20
2019-06-26T06:44:28.054Z,15.08
2019-06-26T06:47:04.027Z,13.35
2019-06-26T06:49:30.589Z,10.68
2019-06-26T06:52:01.580Z,11.28
2019-06-26T06:54:32.202Z,10.50
2019-06-26T06:57:02.805Z,9.93
2019-06-26T06:59:33.392Z,10.65
2019-06-26T07:02:04.055Z,10.38
2019-06-26T07:04:34.494Z,12.50
2019-06-26T07:07:05.222Z,16.23
2019-06-26T07:09:35.914Z,14.90
2019-06-26T07:12:06.402Z,16.50
2019-06-26T07:14:37.054Z,16.07
2019-06-26T07:17:19.734Z,15.95
2019-06-26T07:19:39.707Z,14.63
2019-06-26T07:22:10.021Z,14.85
2019-06-26T07:24:40.161Z,9.78
2019-06-26T07:27:10.369Z,14.53
2019-06-26T07:29:40.633Z,12.43
2019-06-26T07:32:11.255Z,11.73
2019-06-26T07:34:41.383Z,12.13
2019-06-26T07:37:11.700Z,10.70
2019-06-26T07:39:42.079Z,7.90
2019-06-26T07:42:12.397Z,8.20
2019-06-26T07:44:42.513Z,9.95
2019-06-26T07:47:23.070Z,8.75
2019-06-26T07:49:44.642Z,9.73
2019-06-26T07:52:14.829Z,10.20
2019-06-26T07:54:45.087Z,9.38
2019-06-26T07:57:15.634Z,9.05
2019-06-26T07:59:45.968Z,11.00
2019-06-26T08:02:16.262Z,12.50
2019-06-26T08:04:46.630Z,14.87
2019-06-26T08:07:16.864Z,16.27
2019-06-26T08:09:47.225Z,15.10
2019-06-26T08:12:17.512Z,15.53
2019-06-26T08:14:47.730Z,12.23
2019-06-26T08:17:18.142Z,9.33
2019-06-26T08:19:48.376Z,9.95
2019-06-26T08:22:18.605Z,10.70
2019-06-26T08:24:49.046Z,8.18
2019-06-26T08:27:19.550Z,8.43
2019-06-26T08:29:49.990Z,7.85
2019-06-26T08:32:20.213Z,7.78
2019-06-26T08:34:50.568Z,8.78
2019-06-26T08:37:20.927Z,7.25
2019-06-26T08:39:50.846Z,7.37
2019-06-26T08:42:20.938Z,7.10
2019-06-26T08:44:50.973Z,7.12
2019-06-26T08:47:21.358Z,6.75
2019-06-26T08:49:51.683Z,6.37
2019-06-26T08:52:22.290Z,15.80
2019-06-26T08:54:52.334Z,7.22
2019-06-26T08:57:22.842Z,6.60
2019-06-26T08:59:53.280Z,7.35
2019-06-26T09:02:23.621Z,8.58
2019-06-26T09:04:53.902Z,6.50
2019-06-26T09:07:24.130Z,6.45
2019-06-26T09:09:54.213Z,5.87
2019-06-26T09:12:24.304Z,5.50
2019-06-26T09:14:54.463Z,6.33
2019-06-26T09:17:24.968Z,5.85
2019-06-26T09:19:55.332Z,6.12
2019-06-26T09:22:25.594Z,6.50
2019-06-26T09:24:55.849Z,5.50
2019-06-26T09:27:26.336Z,5.28
2019-06-26T09:29:56.379Z,5.30
2019-06-26T09:32:26.531Z,5.53
2019-06-26T09:34:56.838Z,5.55
2019-06-26T09:37:27.205Z,5.42
2019-06-26T09:39:57.644Z,5.25
2019-06-26T09:42:27.705Z,5.60
2019-06-26T09:44:57.724Z,5.62
2019-06-26T09:47:30.860Z,5.05
2019-06-26T09:49:59.547Z,5.58
2019-06-26T09:52:30.535Z,5.33
2019-06-26T09:55:00.842Z,5.25
2019-06-26T09:57:31.140Z,5.33
2019-06-26T10:00:01.283Z,5.15
2019-06-26T10:02:31.739Z,5.15
2019-06-26T10:05:01.855Z,4.90
2019-06-26T10:07:32.028Z,4.83
2019-06-26T10:10:02.375Z,5.42
2019-06-26T10:12:32.514Z,5.12
2019-06-26T10:15:02.823Z,5.10
2019-06-26T10:17:33.132Z,5.53
2019-06-26T10:20:03.263Z,9.90
2019-06-26T10:22:33.596Z,8.13
2019-06-26T10:25:03.834Z,8.63
2019-06-26T10:27:34.140Z,13.13
2019-06-26T10:30:05.942Z,6.37
2019-06-26T10:32:36.078Z,5.00
2019-06-26T10:35:07.709Z,7.00
2019-06-26T10:37:38.114Z,8.95
2019-06-26T10:40:08.637Z,7.20
2019-06-26T10:42:38.660Z,4.85
2019-06-26T10:45:10.201Z,4.33
2019-06-26T10:47:40.660Z,4.22
2019-06-26T10:50:10.985Z,4.12
2019-06-26T10:52:41.347Z,4.20
2019-06-26T10:55:12.812Z,4.08
2019-06-26T10:57:42.783Z,4.05
2019-06-26T11:00:13.430Z,4.00
2019-06-26T11:02:44.260Z,3.72
2019-06-26T11:05:15.815Z,3.83
2019-06-26T11:07:46.022Z,3.90
2019-06-26T11:10:16.755Z,4.05
2019-06-26T11:12:49.015Z,3.85
2019-06-26T11:15:18.900Z,4.05
2019-06-26T11:17:48.932Z,3.87
2019-06-26T11:20:19.514Z,3.92
2019-06-26T11:22:50.099Z,3.90
2019-06-26T11:25:22.045Z,4.00
2019-06-26T11:27:52.287Z,4.08
2019-06-26T11:30:23.194Z,4.03
2019-06-26T11:32:53.703Z,4.30
2019-06-26T11:35:23.987Z,4.40
2019-06-26T11:37:54.406Z,4.17
2019-06-26T11:40:24.884Z,4.15
2019-06-26T11:42:54.923Z,4.20
2019-06-26T11:45:25.234Z,4.70
2019-06-26T11:47:55.488Z,4.47
2019-06-26T11:50:26.020Z,4.42
2019-06-26T11:52:56.301Z,4.62
2019-06-26T11:55:26.386Z,4.50
2019-06-26T11:57:56.472Z,4.37
2019-06-26T12:00:28.348Z,4.35
2019-06-26T12:02:59.106Z,4.20
2019-06-26T12:05:29.382Z,4.08
2019-06-26T12:07:59.574Z,4.47
2019-06-26T12:10:29.709Z,4.22
2019-06-26T12:13:03.744Z,4.10
2019-06-26T12:15:32.049Z,4.45
2019-06-26T12:18:02.343Z,4.50
2019-06-26T12:20:32.842Z,4.28
2019-06-26T12:23:03.024Z,4.35
2019-06-26T12:25:33.790Z,4.10
2019-06-26T12:28:03.977Z,4.67
2019-06-26T12:30:34.349Z,4.42
2019-06-26T12:33:04.592Z,4.60
2019-06-26T12:35:35.099Z,4.08
2019-06-26T12:38:05.324Z,4.35
2019-06-26T12:40:35.550Z,4.25
2019-06-26T12:43:06.039Z,4.53
2019-06-26T12:45:36.844Z,4.28
2019-06-26T12:48:07.276Z,4.67
2019-06-26T12:50:37.682Z,4.62
2019-06-26T12:53:08.272Z,4.10
2019-06-26T12:55:39.001Z,4.37
2019-06-26T12:58:13.835Z,4.30
2019-06-26T13:00:41.590Z,4.10
2019-06-26T13:03:12.194Z,4.20
2019-06-26T13:05:42.626Z,4.47
2019-06-26T13:08:12.702Z,4.20
2019-06-26T13:10:49.467Z,4.47
2019-06-26T13:13:15.249Z,4.58
2019-06-26T13:15:45.467Z,4.33
2019-06-26T13:18:15.702Z,4.42
2019-06-26T13:20:52.809Z,4.70
2019-06-26T13:23:18.083Z,4.93
2019-06-26T13:25:48.224Z,4.58
2019-06-26T13:28:18.620Z,4.62
2019-06-26T13:30:48.892Z,4.47
2019-06-26T13:33:18.966Z,4.95
2019-06-26T13:35:49.332Z,4.20
2019-06-26T13:38:19.531Z,4.40
2019-06-26T13:40:49.580Z,4.45
2019-06-26T13:43:20.557Z,4.37
2019-06-26T13:45:51.069Z,4.58
2019-06-26T13:48:21.620Z,4.42
2019-06-26T13:51:07.858Z,4.37
2019-06-26T13:53:24.618Z,4.97
2019-06-26T13:55:55.099Z,4.67
2019-06-26T13:58:25.715Z,4.28
2019-06-26T14:00:56.307Z,3.98
2019-06-26T14:03:26.605Z,4.53
2019-06-26T14:05:57.209Z,4.62
2019-06-26T14:08:28.190Z,5.60
2019-06-26T14:10:58.524Z,7.12
2019-06-26T14:13:29.007Z,5.97
2019-06-26T14:15:59.246Z,5.10
2019-06-26T14:18:30.542Z,4.33
2019-06-26T14:21:00.813Z,4.42
2019-06-26T14:23:31.182Z,4.95
2019-06-26T14:26:01.450Z,4.72
2019-06-26T14:28:31.742Z,8.80
2019-06-26T14:31:01.887Z,4.87
2019-06-26T14:33:32.261Z,4.67
2019-06-26T14:36:02.906Z,4.20
2019-06-26T14:38:33.227Z,4.15
2019-06-26T14:41:03.611Z,4.95
2019-06-26T14:43:34.427Z,3.95
2019-06-26T14:46:05.065Z,4.47
2019-06-26T14:48:36.142Z,4.92
2019-06-26T14:51:06.765Z,4.90
2019-06-26T14:53:36.916Z,6.12
2019-06-26T14:56:07.434Z,5.87
2019-06-26T14:58:38.115Z,4.97
2019-06-26T15:01:08.757Z,5.30
2019-06-26T15:03:39.311Z,5.45
2019-06-26T15:06:16.231Z,5.08
2019-06-26T15:08:42.151Z,5.20
2019-06-26T15:11:15.545Z,4.72
2019-06-26T15:13:44.972Z,4.62
2019-06-26T15:16:15.436Z,4.75
2019-06-26T15:18:45.799Z,4.35
2019-06-26T15:21:16.063Z,4.70
2019-06-26T15:23:46.777Z,4.40
2019-06-26T15:26:17.324Z,4.67
2019-06-26T15:28:48.102Z,7.20
2019-06-26T15:31:18.301Z,16.80
2019-06-26T15:33:49.187Z,6.70
2019-06-26T15:36:19.359Z,5.47
2019-06-26T15:38:49.600Z,5.42
2019-06-26T15:41:20.406Z,7.67
2019-06-26T15:43:50.858Z,6.62
2019-06-26T15:46:21.255Z,6.00
2019-06-26T15:48:51.587Z,7.25
2019-06-26T15:51:22.241Z,5.78
2019-06-26T15:53:52.588Z,5.12
2019-06-26T15:56:22.993Z,5.72
2019-06-26T15:58:53.474Z,6.25
2019-06-26T16:01:25.374Z,6.15
2019-06-26T16:03:55.709Z,5.40
2019-06-26T16:06:26.265Z,5.30
2019-06-26T16:08:56.776Z,5.47
2019-06-26T16:11:27.656Z,5.03
2019-06-26T16:13:59.449Z,5.42
2019-06-26T16:16:30.417Z,5.47
2019-06-26T16:19:06.982Z,5.62
2019-06-26T16:21:37.636Z,6.08
2019-06-26T16:24:08.098Z,5.87
2019-06-26T16:26:38.522Z,5.33
2019-06-26T16:29:09.073Z,5.35
2019-06-26T16:31:39.775Z,6.28
2019-06-26T16:34:09.991Z,5.65
2019-06-26T16:36:40.401Z,6.00
2019-06-26T16:39:11.242Z,5.17
2019-06-26T16:41:42.098Z,5.67
2019-06-26T16:44:12.822Z,5.55
2019-06-26T16:46:43.317Z,5.67
2019-06-26T16:49:14.008Z,5.70
2019-06-26T16:51:44.578Z,5.47
2019-06-26T16:54:14.989Z,5.87
2019-06-26T16:56:45.287Z,6.05
2019-06-26T16:59:15.768Z,5.90
2019-06-26T17:01:45.923Z,5.70
2019-06-26T17:04:16.094Z,5.85
2019-06-26T17:06:46.231Z,5.72
2019-06-26T17:09:16.601Z,5.83
2019-06-26T17:11:46.790Z,6.17
2019-06-26T17:14:17.459Z,5.80
2019-06-26T17:16:47.484Z,5.85
2019-06-26T17:19:17.910Z,6.47
2019-06-26T17:21:49.010Z,6.47
2019-06-26T17:24:19.449Z,6.55
2019-06-26T17:26:49.534Z,6.35
2019-06-26T17:29:20.287Z,5.95
2019-06-26T17:31:50.725Z,6.33
2019-06-26T17:34:20.922Z,6.37
2019-06-26T17:36:51.493Z,6.08
2019-06-26T17:39:22.117Z,6.30
2019-06-26T17:41:53.046Z,5.78
2019-06-26T17:44:23.677Z,6.12
2019-06-26T17:46:54.075Z,6.92
2019-06-26T17:49:24.711Z,6.30
2019-06-26T17:51:55.428Z,6.22
2019-06-26T17:54:25.670Z,6.28
2019-06-26T17:56:56.297Z,6.10
2019-06-26T17:59:26.813Z,6.53
2019-06-26T18:01:57.584Z,6.83
2019-06-26T18:04:27.752Z,6.97
2019-06-26T18:06:58.377Z,6.72
2019-06-26T18:09:29.210Z,6.58
2019-06-26T18:11:59.690Z,7.37
2019-06-26T18:14:30.363Z,6.72
2019-06-26T18:17:01.266Z,6.67
2019-06-26T18:19:31.820Z,7.12
2019-06-26T18:22:01.845Z,6.53
2019-06-26T18:24:32.411Z,7.37
2019-06-26T18:27:02.516Z,7.22
2019-06-26T18:29:32.733Z,7.12
2019-06-26T18:32:03.143Z,7.45
2019-06-26T18:34:34.045Z,7.83
2019-06-26T18:37:04.444Z,7.58
2019-06-26T18:39:34.933Z,7.85
2019-06-26T18:42:05.604Z,8.00
2019-06-26T18:44:35.907Z,7.83
2019-06-26T18:47:07.139Z,8.35
2019-06-26T18:49:37.318Z,8.60
2019-06-26T18:52:07.989Z,8.30
2019-06-26T18:54:38.385Z,7.85
2019-06-26T18:57:08.743Z,7.60
2019-06-26T18:59:42.209Z,8.48
2019-06-26T19:02:11.452Z,8.53
2019-06-26T19:04:41.982Z,7.87
2019-06-26T19:07:12.265Z,7.83
2019-06-26T19:09:42.611Z,7.85
2019-06-26T19:12:12.675Z,7.67
2019-06-26T19:14:46.078Z,7.72
2019-06-26T19:17:15.522Z,8.40
2019-06-26T19:19:46.090Z,7.20
2019-06-26T19:22:16.736Z,7.78
2019-06-26T19:24:46.842Z,7.97
2019-06-26T19:27:17.781Z,8.15
2019-06-26T19:29:48.007Z,7.97
2019-06-26T19:32:18.353Z,7.75
2019-06-26T19:34:48.627Z,8.25
2019-06-26T19:37:19.290Z,7.80
2019-06-26T19:39:49.896Z,8.55
2019-06-26T19:42:20.296Z,8.05
2019-06-26T19:44:50.766Z,7.65
2019-06-26T19:47:21.232Z,8.48
2019-06-26T19:49:51.746Z,8.25
2019-06-26T19:52:22.620Z,8.25
2019-06-26T19:54:52.751Z,8.40
2019-06-26T19:57:23.665Z,8.53
2019-06-26T19:59:54.161Z,8.85
2019-06-26T20:02:24.693Z,9.13
2019-06-26T20:04:55.739Z,9.45
2019-06-26T20:07:27.448Z,10.28
2019-06-26T20:10:01.563Z,10.98
2019-06-26T20:12:29.814Z,11.78
2019-06-26T20:14:59.795Z,12.75
2019-06-26T20:17:30.367Z,13.53
2019-06-26T20:20:00.627Z,14.75
2019-06-26T20:22:30.668Z,15.60
2019-06-26T20:25:00.736Z,15.13
2019-06-26T20:27:30.622Z,16.40
2019-06-26T20:30:00.360Z,14.85
2019-06-26T20:32:30.161Z,14.70
2019-06-26T20:35:00.087Z,14.83
2019-06-26T20:37:30.105Z,15.32
2019-06-26T20:39:59.816Z,13.78
2019-06-26T20:42:29.563Z,15.40
2019-06-26T20:44:59.420Z,14.58
2019-06-26T20:47:29.155Z,14.18
2019-06-26T20:49:58.951Z,14.40
2019-06-26T20:52:28.763Z,13.98
2019-06-26T20:55:01.882Z,13.95
2019-06-26T20:57:30.179Z,14.20
2019-06-26T20:59:59.822Z,15.38
2019-06-26T21:02:29.747Z,15.03
2019-06-26T21:04:59.557Z,14.65
2019-06-26T21:07:29.227Z,14.65
2019-06-26T21:09:58.964Z,14.58
2019-06-26T21:12:28.730Z,15.45
2019-06-26T21:14:58.407Z,15.43
2019-06-26T21:17:28.289Z,15.18
2019-06-26T21:19:58.084Z,15.23
2019-06-26T21:22:27.824Z,14.75
2019-06-26T21:24:57.681Z,15.13
2019-06-26T21:27:27.532Z,14.73
2019-06-26T21:29:57.176Z,14.93
2019-06-26T21:32:27.069Z,15.32
2019-06-26T21:34:56.819Z,15.35
2019-06-26T21:37:26.675Z,14.95
2019-06-26T21:39:56.351Z,15.72
2019-06-26T21:42:26.091Z,14.63
2019-06-26T21:44:55.678Z,15.95
2019-06-26T21:47:25.296Z,14.95
2019-06-26T21:49:55.016Z,15.58
2019-06-26T21:52:24.754Z,15.83
2019-06-26T21:54:54.586Z,15.35
2019-06-26T21:57:24.547Z,16.00
2019-06-26T21:59:54.551Z,15.50
2019-06-26T22:02:24.592Z,15.23
2019-06-26T22:04:54.451Z,15.55
2019-06-26T22:07:24.737Z,16.02
2019-06-26T22:09:55.576Z,14.70
2019-06-26T22:12:25.654Z,16.37
2019-06-26T22:14:55.462Z,16.12
2019-06-26T22:17:25.483Z,15.75
2019-06-26T22:19:55.177Z,15.43
2019-06-26T22:22:25.134Z,15.72
2019-06-26T22:24:54.964Z,15.63
2019-06-26T22:27:24.950Z,16.80
2019-06-26T22:29:54.858Z,16.35
2019-06-26T22:32:24.805Z,15.83
2019-06-26T22:34:54.935Z,15.83
2019-06-26T22:37:25.018Z,15.98
2019-06-26T22:39:54.887Z,15.95
2019-06-26T22:42:25.126Z,17.25
2019-06-26T22:44:54.887Z,16.37
2019-06-26T22:47:24.709Z,17.00
2019-06-26T22:49:54.598Z,16.37
2019-06-26T22:52:24.738Z,17.25
2019-06-26T22:54:54.505Z,17.55
2019-06-26T22:57:24.673Z,16.90
2019-06-26T22:59:54.398Z,16.55
2019-06-26T23:02:24.544Z,17.92
2019-06-26T23:04:54.297Z,17.15
2019-06-26T23:07:24.309Z,17.73
2019-06-26T23:09:54.086Z,16.67
2019-06-26T23:12:23.986Z,17.65
2019-06-26T23:14:53.691Z,17.27
2019-06-26T23:17:23.762Z,17.45
2019-06-26T23:19:53.579Z,17.17
2019-06-26T23:22:23.534Z,16.62
2019-06-26T23:24:53.230Z,17.07
2019-06-26T23:27:22.972Z,18.15
2019-06-26T23:29:52.614Z,17.65
2019-06-26T23:32:22.291Z,17.67
2019-06-26T23:34:52.070Z,18.10
2019-06-26T23:37:21.777Z,18.25
2019-06-26T23:39:51.724Z,17.50
2019-06-26T23:42:21.570Z,18.07
2019-06-26T23:44:51.449Z,18.00
2019-06-26T23:47:21.324Z,19.17
2019-06-26T23:49:51.109Z,18.95
2019-06-26T23:52:20.746Z,18.05
2019-06-26T23:54:50.440Z,18.73
2019-06-26T23:57:20.292Z,18.62
2019-06-26T23:59:50.038Z,17.87
